sensor_id;sensor_type;location;lat;lon;timestamp;P1;durP1;ratioP1;P2;durP2;ratioP2
24216;SDS011;12356;49.386;8.688;2022-11-20T00:00:25;6.93;;;4.43;;
24216;SDS011;12356;49.386;8.688;2022-11-20T00:02:55;6.55;;;4.13;;
24216;SDS011;12356;49.386;8.688;2022-11-20T00:05:26;6.22;;;3.85;;
24216;SDS011;12356;49.386;8.688;2022-11-20T00:07:57;6.43;;;4.32;;
24216;SDS011;12356;49.386;8.688;2022-11-20T00:10:28;5.68;;;4.10;;
24216;SDS011;12356;49.386;8.688;2022-11-20T00:12:58;5.28;;;3.92;;
24216;SDS011;12356;49.386;8.688;2022-11-20T00:15:29;7.95;;;4.13;;
24216;SDS011;12356;49.386;8.688;2022-11-20T00:18:00;6.70;;;3.90;;
24216;SDS011;12356;49.386;8.688;2022-11-20T00:20:31;6.15;;;4.40;;
24216;SDS011;12356;49.386;8.688;2022-11-20T00:23:02;5.93;;;4.13;;
24216;SDS011;12356;49.386;8.688;2022-11-20T00:25:33;5.07;;;3.78;;
24216;SDS011;12356;49.386;8.688;2022-11-20T00:28:05;4.53;;;3.13;;
24216;SDS011;12356;49.386;8.688;2022-11-20T00:30:36;5.95;;;3.28;;
24216;SDS011;12356;49.386;8.688;2022-11-20T00:33:06;5.25;;;3.65;;
24216;SDS011;12356;49.386;8.688;2022-11-20T00:35:37;7.38;;;4.40;;
24216;SDS011;12356;49.386;8.688;2022-11-20T00:38:08;8.20;;;5.60;;
24216;SDS011;12356;49.386;8.688;2022-11-20T00:40:39;10.05;;;5.90;;
24216;SDS011;12356;49.386;8.688;2022-11-20T00:43:10;8.63;;;5.75;;
24216;SDS011;12356;49.386;8.688;2022-11-20T00:45:40;8.93;;;5.95;;
24216;SDS011;12356;49.386;8.688;2022-11-20T00:48:11;8.88;;;5.78;;
24216;SDS011;12356;49.386;8.688;2022-11-20T00:50:42;9.15;;;6.03;;
24216;SDS011;12356;49.386;8.688;2022-11-20T00:53:12;9.20;;;5.18;;
24216;SDS011;12356;49.386;8.688;2022-11-20T00:55:52;9.27;;;4.90;;
24216;SDS011;12356;49.386;8.688;2022-11-20T00:58:33;7.05;;;4.97;;
24216;SDS011;12356;49.386;8.688;2022-11-20T01:01:06;8.27;;;5.45;;
24216;SDS011;12356;49.386;8.688;2022-11-20T01:03:45;6.82;;;5.07;;
24216;SDS011;12356;49.386;8.688;2022-11-20T01:06:21;8.52;;;5.00;;
24216;SDS011;12356;49.386;8.688;2022-11-20T01:08:58;8.60;;;5.03;;
24216;SDS011;12356;49.386;8.688;2022-11-20T01:11:31;10.23;;;5.28;;
24216;SDS011;12356;49.386;8.688;2022-11-20T01:14:05;7.50;;;5.30;;
24216;SDS011;12356;49.386;8.688;2022-11-20T01:16:40;6.78;;;4.95;;
24216;SDS011;12356;49.386;8.688;2022-11-20T01:19:15;9.52;;;5.45;;
24216;SDS011;12356;49.386;8.688;2022-11-20T01:21:50;7.43;;;5.18;;
24216;SDS011;12356;49.386;8.688;2022-11-20T01:24:22;7.72;;;5.20;;
24216;SDS011;12356;49.386;8.688;2022-11-20T01:26:54;7.97;;;5.07;;
24216;SDS011;12356;49.386;8.688;2022-11-20T01:29:24;9.02;;;5.25;;
24216;SDS011;12356;49.386;8.688;2022-11-20T01:31:55;7.78;;;5.35;;
24216;SDS011;12356;49.386;8.688;2022-11-20T01:34:26;8.93;;;5.45;;
24216;SDS011;12356;49.386;8.688;2022-11-20T01:36:57;7.60;;;5.47;;
24216;SDS011;12356;49.386;8.688;2022-11-20T01:39:27;7.93;;;5.50;;
24216;SDS011;12356;49.386;8.688;2022-11-20T01:41:58;8.93;;;5.32;;
24216;SDS011;12356;49.386;8.688;2022-11-20T01:44:49;7.90;;;5.45;;
24216;SDS011;12356;49.386;8.688;2022-11-20T01:47:36;8.52;;;5.63;;
24216;SDS011;12356;49.386;8.688;2022-11-20T01:50:15;7.57;;;5.20;;
24216;SDS011;12356;49.386;8.688;2022-11-20T01:53:01;8.27;;;5.65;;
24216;SDS011;12356;49.386;8.688;2022-11-20T01:55:36;8.90;;;5.93;;
24216;SDS011;12356;49.386;8.688;2022-11-20T01:58:18;9.63;;;6.50;;
24216;SDS011;12356;49.386;8.688;2022-11-20T02:00:52;9.32;;;6.28;;
24216;SDS011;12356;49.386;8.688;2022-11-20T02:03:23;9.60;;;5.57;;
24216;SDS011;12356;49.386;8.688;2022-11-20T02:08:49;10.77;;;6.68;;
24216;SDS011;12356;49.386;8.688;2022-11-20T02:11:21;9.77;;;6.75;;
24216;SDS011;12356;49.386;8.688;2022-11-20T02:13:53;9.20;;;6.63;;
24216;SDS011;12356;49.386;8.688;2022-11-20T02:18:59;10.63;;;6.68;;
24216;SDS011;12356;49.386;8.688;2022-11-20T02:21:34;9.35;;;6.68;;
24216;SDS011;12356;49.386;8.688;2022-11-20T02:24:18;10.35;;;6.90;;
24216;SDS011;12356;49.386;8.688;2022-11-20T02:26:54;11.18;;;7.10;;
24216;SDS011;12356;49.386;8.688;2022-11-20T02:29:37;13.90;;;7.00;;
24216;SDS011;12356;49.386;8.688;2022-11-20T02:37:48;11.32;;;7.18;;
24216;SDS011;12356;49.386;8.688;2022-11-20T02:40:21;11.48;;;7.57;;
24216;SDS011;12356;49.386;8.688;2022-11-20T02:42:53;15.23;;;8.50;;
24216;SDS011;12356;49.386;8.688;2022-11-20T02:45:24;14.18;;;8.45;;
24216;SDS011;12356;49.386;8.688;2022-11-20T02:47:55;16.70;;;9.13;;
24216;SDS011;12356;49.386;8.688;2022-11-20T02:50:26;19.50;;;10.35;;
24216;SDS011;12356;49.386;8.688;2022-11-20T02:52:57;18.38;;;10.45;;
24216;SDS011;12356;49.386;8.688;2022-11-20T02:55:28;17.75;;;10.10;;
24216;SDS011;12356;49.386;8.688;2022-11-20T02:57:58;21.58;;;11.00;;
24216;SDS011;12356;49.386;8.688;2022-11-20T03:00:29;20.80;;;11.10;;
24216;SDS011;12356;49.386;8.688;2022-11-20T03:03:00;21.33;;;11.35;;
24216;SDS011;12356;49.386;8.688;2022-11-20T03:05:30;19.58;;;10.85;;
24216;SDS011;12356;49.386;8.688;2022-11-20T03:08:01;20.85;;;10.57;;
24216;SDS011;12356;49.386;8.688;2022-11-20T03:10:31;19.45;;;11.32;;
24216;SDS011;12356;49.386;8.688;2022-11-20T03:13:02;21.02;;;11.70;;
24216;SDS011;12356;49.386;8.688;2022-11-20T03:15:33;21.55;;;11.32;;
24216;SDS011;12356;49.386;8.688;2022-11-20T03:18:05;20.48;;;12.02;;
24216;SDS011;12356;49.386;8.688;2022-11-20T03:20:36;20.73;;;11.60;;
24216;SDS011;12356;49.386;8.688;2022-11-20T03:23:06;21.33;;;12.13;;
24216;SDS011;12356;49.386;8.688;2022-11-20T03:25:37;25.58;;;12.48;;
24216;SDS011;12356;49.386;8.688;2022-11-20T03:28:07;22.02;;;11.60;;
24216;SDS011;12356;49.386;8.688;2022-11-20T03:30:38;22.65;;;11.88;;
24216;SDS011;12356;49.386;8.688;2022-11-20T03:33:10;20.67;;;12.07;;
24216;SDS011;12356;49.386;8.688;2022-11-20T03:35:41;20.65;;;12.10;;
24216;SDS011;12356;49.386;8.688;2022-11-20T03:38:11;21.95;;;12.52;;
24216;SDS011;12356;49.386;8.688;2022-11-20T03:40:42;22.33;;;11.57;;
24216;SDS011;12356;49.386;8.688;2022-11-20T03:43:12;20.20;;;11.73;;
24216;SDS011;12356;49.386;8.688;2022-11-20T03:45:43;21.23;;;11.23;;
24216;SDS011;12356;49.386;8.688;2022-11-20T03:48:14;20.98;;;12.32;;
24216;SDS011;12356;49.386;8.688;2022-11-20T03:50:45;20.45;;;12.18;;
24216;SDS011;12356;49.386;8.688;2022-11-20T03:53:17;20.83;;;12.18;;
24216;SDS011;12356;49.386;8.688;2022-11-20T03:55:51;20.67;;;12.15;;
24216;SDS011;12356;49.386;8.688;2022-11-20T03:58:22;22.20;;;12.35;;
24216;SDS011;12356;49.386;8.688;2022-11-20T04:00:53;20.58;;;11.88;;
24216;SDS011;12356;49.386;8.688;2022-11-20T04:03:23;18.25;;;11.60;;
24216;SDS011;12356;49.386;8.688;2022-11-20T04:05:55;19.60;;;11.27;;
24216;SDS011;12356;49.386;8.688;2022-11-20T04:08:30;18.10;;;10.82;;
24216;SDS011;12356;49.386;8.688;2022-11-20T04:11:08;18.90;;;11.45;;
24216;SDS011;12356;49.386;8.688;2022-11-20T04:13:40;15.52;;;10.20;;
24216;SDS011;12356;49.386;8.688;2022-11-20T04:16:11;18.02;;;10.82;;
24216;SDS011;12356;49.386;8.688;2022-11-20T04:18:43;17.58;;;10.95;;
24216;SDS011;12356;49.386;8.688;2022-11-20T04:21:14;17.05;;;10.85;;
24216;SDS011;12356;49.386;8.688;2022-11-20T04:23:44;17.08;;;10.63;;
24216;SDS011;12356;49.386;8.688;2022-11-20T04:26:15;15.90;;;10.95;;
24216;SDS011;12356;49.386;8.688;2022-11-20T04:28:45;16.20;;;10.57;;
24216;SDS011;12356;49.386;8.688;2022-11-20T04:31:18;16.85;;;10.80;;
24216;SDS011;12356;49.386;8.688;2022-11-20T04:33:50;17.08;;;11.05;;
24216;SDS011;12356;49.386;8.688;2022-11-20T04:36:23;16.98;;;10.00;;
24216;SDS011;12356;49.386;8.688;2022-11-20T04:38:58;18.23;;;10.68;;
24216;SDS011;12356;49.386;8.688;2022-11-20T04:44:03;17.77;;;10.93;;
24216;SDS011;12356;49.386;8.688;2022-11-20T04:46:39;19.25;;;11.60;;
24216;SDS011;12356;49.386;8.688;2022-11-20T04:49:11;16.10;;;10.35;;
24216;SDS011;12356;49.386;8.688;2022-11-20T04:51:42;17.13;;;10.82;;
24216;SDS011;12356;49.386;8.688;2022-11-20T04:54:14;18.77;;;11.07;;
24216;SDS011;12356;49.386;8.688;2022-11-20T04:56:49;16.70;;;10.85;;
24216;SDS011;12356;49.386;8.688;2022-11-20T04:59:21;16.00;;;10.48;;
24216;SDS011;12356;49.386;8.688;2022-11-20T05:01:51;18.27;;;11.65;;
24216;SDS011;12356;49.386;8.688;2022-11-20T05:04:22;16.77;;;10.95;;
24216;SDS011;12356;49.386;8.688;2022-11-20T05:06:53;18.30;;;11.18;;
24216;SDS011;12356;49.386;8.688;2022-11-20T05:09:23;15.68;;;10.40;;
24216;SDS011;12356;49.386;8.688;2022-11-20T05:11:54;17.60;;;11.30;;
24216;SDS011;12356;49.386;8.688;2022-11-20T05:14:25;15.88;;;10.77;;
24216;SDS011;12356;49.386;8.688;2022-11-20T05:16:55;19.75;;;11.38;;
24216;SDS011;12356;49.386;8.688;2022-11-20T05:19:26;17.98;;;11.18;;
24216;SDS011;12356;49.386;8.688;2022-11-20T05:21:57;16.63;;;10.70;;
24216;SDS011;12356;49.386;8.688;2022-11-20T05:24:27;15.63;;;10.43;;
24216;SDS011;12356;49.386;8.688;2022-11-20T05:26:59;18.85;;;11.68;;
24216;SDS011;12356;49.386;8.688;2022-11-20T05:29:30;17.77;;;10.90;;
24216;SDS011;12356;49.386;8.688;2022-11-20T05:32:01;20.40;;;11.63;;
24216;SDS011;12356;49.386;8.688;2022-11-20T05:34:32;19.13;;;11.98;;
24216;SDS011;12356;49.386;8.688;2022-11-20T05:37:03;19.00;;;11.55;;
24216;SDS011;12356;49.386;8.688;2022-11-20T05:39:33;19.98;;;11.65;;
24216;SDS011;12356;49.386;8.688;2022-11-20T05:42:04;20.52;;;12.32;;
24216;SDS011;12356;49.386;8.688;2022-11-20T05:44:53;19.83;;;13.02;;
24216;SDS011;12356;49.386;8.688;2022-11-20T05:47:24;19.73;;;12.48;;
24216;SDS011;12356;49.386;8.688;2022-11-20T05:49:56;21.23;;;13.18;;
24216;SDS011;12356;49.386;8.688;2022-11-20T05:52:30;19.38;;;12.63;;
24216;SDS011;12356;49.386;8.688;2022-11-20T05:55:01;20.58;;;13.23;;
24216;SDS011;12356;49.386;8.688;2022-11-20T05:57:31;19.48;;;12.38;;
24216;SDS011;12356;49.386;8.688;2022-11-20T06:00:02;20.08;;;13.23;;
24216;SDS011;12356;49.386;8.688;2022-11-20T06:02:36;18.25;;;11.75;;
24216;SDS011;12356;49.386;8.688;2022-11-20T06:05:07;17.95;;;11.77;;
24216;SDS011;12356;49.386;8.688;2022-11-20T06:07:38;17.50;;;11.38;;
24216;SDS011;12356;49.386;8.688;2022-11-20T06:10:10;19.02;;;10.85;;
24216;SDS011;12356;49.386;8.688;2022-11-20T06:12:41;18.75;;;11.38;;
24216;SDS011;12356;49.386;8.688;2022-11-20T06:15:13;16.42;;;10.57;;
24216;SDS011;12356;49.386;8.688;2022-11-20T06:17:43;17.03;;;10.73;;
24216;SDS011;12356;49.386;8.688;2022-11-20T06:20:14;18.27;;;11.50;;
24216;SDS011;12356;49.386;8.688;2022-11-20T06:22:45;18.55;;;10.55;;
24216;SDS011;12356;49.386;8.688;2022-11-20T06:25:16;17.85;;;11.10;;
24216;SDS011;12356;49.386;8.688;2022-11-20T06:27:47;17.10;;;10.52;;
24216;SDS011;12356;49.386;8.688;2022-11-20T06:30:17;17.75;;;11.15;;
24216;SDS011;12356;49.386;8.688;2022-11-20T06:32:48;16.25;;;10.73;;
24216;SDS011;12356;49.386;8.688;2022-11-20T06:35:18;13.88;;;9.30;;
24216;SDS011;12356;49.386;8.688;2022-11-20T06:37:49;14.13;;;9.13;;
24216;SDS011;12356;49.386;8.688;2022-11-20T06:40:20;15.60;;;9.40;;
24216;SDS011;12356;49.386;8.688;2022-11-20T06:42:50;14.60;;;9.23;;
24216;SDS011;12356;49.386;8.688;2022-11-20T06:45:23;15.25;;;9.70;;
24216;SDS011;12356;49.386;8.688;2022-11-20T06:47:56;16.77;;;9.15;;
24216;SDS011;12356;49.386;8.688;2022-11-20T06:50:27;13.45;;;8.73;;
24216;SDS011;12356;49.386;8.688;2022-11-20T06:53:01;13.02;;;8.75;;
24216;SDS011;12356;49.386;8.688;2022-11-20T06:55:33;14.52;;;9.38;;
24216;SDS011;12356;49.386;8.688;2022-11-20T06:58:04;13.85;;;8.55;;
24216;SDS011;12356;49.386;8.688;2022-11-20T07:00:34;13.50;;;8.73;;
24216;SDS011;12356;49.386;8.688;2022-11-20T07:03:05;14.20;;;8.75;;
24216;SDS011;12356;49.386;8.688;2022-11-20T07:05:37;14.18;;;8.70;;
24216;SDS011;12356;49.386;8.688;2022-11-20T07:10:41;14.55;;;8.40;;
24216;SDS011;12356;49.386;8.688;2022-11-20T07:13:11;12.18;;;8.32;;
24216;SDS011;12356;49.386;8.688;2022-11-20T07:15:43;14.20;;;8.30;;
24216;SDS011;12356;49.386;8.688;2022-11-20T07:18:14;13.85;;;8.90;;
24216;SDS011;12356;49.386;8.688;2022-11-20T07:20:44;12.57;;;8.45;;
24216;SDS011;12356;49.386;8.688;2022-11-20T07:23:15;13.85;;;8.70;;
24216;SDS011;12356;49.386;8.688;2022-11-20T07:25:45;12.70;;;8.27;;
24216;SDS011;12356;49.386;8.688;2022-11-20T07:28:16;12.68;;;7.88;;
24216;SDS011;12356;49.386;8.688;2022-11-20T07:30:50;12.95;;;8.40;;
24216;SDS011;12356;49.386;8.688;2022-11-20T07:33:21;11.05;;;7.78;;
24216;SDS011;12356;49.386;8.688;2022-11-20T07:35:53;13.50;;;8.25;;
24216;SDS011;12356;49.386;8.688;2022-11-20T07:38:24;17.45;;;8.77;;
24216;SDS011;12356;49.386;8.688;2022-11-20T07:40:55;12.57;;;8.48;;
24216;SDS011;12356;49.386;8.688;2022-11-20T07:43:27;12.30;;;8.30;;
24216;SDS011;12356;49.386;8.688;2022-11-20T07:45:58;14.00;;;8.23;;
24216;SDS011;12356;49.386;8.688;2022-11-20T07:48:29;12.77;;;8.00;;
24216;SDS011;12356;49.386;8.688;2022-11-20T07:50:59;13.80;;;8.10;;
24216;SDS011;12356;49.386;8.688;2022-11-20T07:53:30;14.18;;;8.00;;
24216;SDS011;12356;49.386;8.688;2022-11-20T07:56:01;14.55;;;8.25;;
24216;SDS011;12356;49.386;8.688;2022-11-20T07:58:32;12.35;;;8.20;;
24216;SDS011;12356;49.386;8.688;2022-11-20T08:01:05;10.73;;;7.70;;
24216;SDS011;12356;49.386;8.688;2022-11-20T08:03:36;13.00;;;8.10;;
24216;SDS011;12356;49.386;8.688;2022-11-20T08:06:10;12.48;;;7.65;;
24216;SDS011;12356;49.386;8.688;2022-11-20T08:08:40;10.65;;;7.45;;
24216;SDS011;12356;49.386;8.688;2022-11-20T08:11:11;12.40;;;7.35;;
24216;SDS011;12356;49.386;8.688;2022-11-20T08:14:00;12.52;;;7.82;;
24216;SDS011;12356;49.386;8.688;2022-11-20T08:19:18;10.82;;;7.97;;
24216;SDS011;12356;49.386;8.688;2022-11-20T08:21:48;15.68;;;9.70;;
24216;SDS011;12356;49.386;8.688;2022-11-20T08:24:19;15.63;;;10.07;;
24216;SDS011;12356;49.386;8.688;2022-11-20T08:26:50;12.68;;;8.57;;
24216;SDS011;12356;49.386;8.688;2022-11-20T08:29:20;13.48;;;7.88;;
24216;SDS011;12356;49.386;8.688;2022-11-20T08:31:51;19.98;;;12.05;;
24216;SDS011;12356;49.386;8.688;2022-11-20T08:34:22;18.80;;;10.95;;
24216;SDS011;12356;49.386;8.688;2022-11-20T08:36:53;17.70;;;10.65;;
24216;SDS011;12356;49.386;8.688;2022-11-20T08:39:25;15.87;;;8.33;;
24216;SDS011;12356;49.386;8.688;2022-11-20T08:41:56;13.18;;;8.23;;
24216;SDS011;12356;49.386;8.688;2022-11-20T08:44:27;12.35;;;7.80;;
24216;SDS011;12356;49.386;8.688;2022-11-20T08:46:57;11.63;;;7.53;;
24216;SDS011;12356;49.386;8.688;2022-11-20T08:49:28;11.73;;;7.28;;
24216;SDS011;12356;49.386;8.688;2022-11-20T08:51:58;13.63;;;7.35;;
24216;SDS011;12356;49.386;8.688;2022-11-20T08:54:29;12.35;;;7.60;;
24216;SDS011;12356;49.386;8.688;2022-11-20T08:57:00;10.10;;;6.40;;
24216;SDS011;12356;49.386;8.688;2022-11-20T08:59:30;10.55;;;6.15;;
24216;SDS011;12356;49.386;8.688;2022-11-20T09:02:02;10.27;;;6.27;;
24216;SDS011;12356;49.386;8.688;2022-11-20T09:04:33;9.07;;;6.22;;
24216;SDS011;12356;49.386;8.688;2022-11-20T09:07:03;10.07;;;5.97;;
24216;SDS011;12356;49.386;8.688;2022-11-20T09:09:34;10.15;;;5.88;;
24216;SDS011;12356;49.386;8.688;2022-11-20T09:12:05;9.73;;;5.97;;
24216;SDS011;12356;49.386;8.688;2022-11-20T09:14:35;6.72;;;5.15;;
24216;SDS011;12356;49.386;8.688;2022-11-20T09:17:06;7.82;;;5.70;;
24216;SDS011;12356;49.386;8.688;2022-11-20T09:19:37;6.63;;;5.20;;
24216;SDS011;12356;49.386;8.688;2022-11-20T09:22:08;7.55;;;5.18;;
24216;SDS011;12356;49.386;8.688;2022-11-20T09:24:40;8.82;;;5.65;;
24216;SDS011;12356;49.386;8.688;2022-11-20T09:27:12;7.55;;;5.60;;
24216;SDS011;12356;49.386;8.688;2022-11-20T09:29:43;7.60;;;5.45;;
24216;SDS011;12356;49.386;8.688;2022-11-20T09:32:13;7.95;;;5.63;;
24216;SDS011;12356;49.386;8.688;2022-11-20T09:34:44;8.15;;;5.82;;
24216;SDS011;12356;49.386;8.688;2022-11-20T09:37:15;6.90;;;5.60;;
24216;SDS011;12356;49.386;8.688;2022-11-20T09:39:45;9.80;;;6.20;;
24216;SDS011;12356;49.386;8.688;2022-11-20T09:47:57;7.57;;;5.32;;
24216;SDS011;12356;49.386;8.688;2022-11-20T09:50:43;7.88;;;5.95;;
24216;SDS011;12356;49.386;8.688;2022-11-20T09:53:30;10.35;;;5.90;;
24216;SDS011;12356;49.386;8.688;2022-11-20T09:56:23;8.32;;;5.88;;
24216;SDS011;12356;49.386;8.688;2022-11-20T09:58:57;9.10;;;6.00;;
24216;SDS011;12356;49.386;8.688;2022-11-20T10:01:33;8.20;;;6.13;;
24216;SDS011;12356;49.386;8.688;2022-11-20T10:04:16;9.98;;;6.05;;
24216;SDS011;12356;49.386;8.688;2022-11-20T10:07:02;9.73;;;6.18;;
24216;SDS011;12356;49.386;8.688;2022-11-20T10:09:54;8.52;;;5.93;;
24216;SDS011;12356;49.386;8.688;2022-11-20T10:12:42;9.65;;;6.43;;
24216;SDS011;12356;49.386;8.688;2022-11-20T10:15:42;7.72;;;5.85;;
24216;SDS011;12356;49.386;8.688;2022-11-20T10:24:56;8.30;;;5.47;;
24216;SDS011;12356;49.386;8.688;2022-11-20T10:30:22;8.70;;;6.03;;
24216;SDS011;12356;49.386;8.688;2022-11-20T10:32:56;9.25;;;6.30;;
24216;SDS011;12356;49.386;8.688;2022-11-20T10:35:44;8.98;;;6.32;;
24216;SDS011;12356;49.386;8.688;2022-11-20T10:40:57;8.60;;;6.07;;
24216;SDS011;12356;49.386;8.688;2022-11-20T10:43:50;8.90;;;5.80;;
24216;SDS011;12356;49.386;8.688;2022-11-20T10:46:43;7.75;;;5.82;;
24216;SDS011;12356;49.386;8.688;2022-11-20T10:49:15;8.40;;;5.93;;
24216;SDS011;12356;49.386;8.688;2022-11-20T10:51:59;8.73;;;6.10;;
24216;SDS011;12356;49.386;8.688;2022-11-20T10:54:52;8.80;;;5.88;;
24216;SDS011;12356;49.386;8.688;2022-11-20T11:00:26;8.10;;;6.15;;
24216;SDS011;12356;49.386;8.688;2022-11-20T11:02:57;8.98;;;6.40;;
24216;SDS011;12356;49.386;8.688;2022-11-20T11:05:37;7.90;;;5.60;;
24216;SDS011;12356;49.386;8.688;2022-11-20T11:08:14;10.40;;;5.82;;
24216;SDS011;12356;49.386;8.688;2022-11-20T11:11:00;9.60;;;6.10;;
24216;SDS011;12356;49.386;8.688;2022-11-20T11:13:42;10.60;;;5.78;;
24216;SDS011;12356;49.386;8.688;2022-11-20T11:16:26;10.20;;;5.70;;
24216;SDS011;12356;49.386;8.688;2022-11-20T11:19:06;8.32;;;5.93;;
24216;SDS011;12356;49.386;8.688;2022-11-20T11:21:47;9.38;;;5.78;;
24216;SDS011;12356;49.386;8.688;2022-11-20T11:24:25;7.25;;;5.32;;
24216;SDS011;12356;49.386;8.688;2022-11-20T11:29:29;9.73;;;7.20;;
24216;SDS011;12356;49.386;8.688;2022-11-20T11:32:15;10.30;;;6.93;;
24216;SDS011;12356;49.386;8.688;2022-11-20T11:34:59;8.43;;;5.43;;
24216;SDS011;12356;49.386;8.688;2022-11-20T11:37:38;8.13;;;5.75;;
24216;SDS011;12356;49.386;8.688;2022-11-20T11:40:09;8.60;;;4.85;;
24216;SDS011;12356;49.386;8.688;2022-11-20T11:42:42;7.70;;;5.22;;
24216;SDS011;12356;49.386;8.688;2022-11-20T11:45:14;7.78;;;5.65;;
24216;SDS011;12356;49.386;8.688;2022-11-20T11:47:47;6.55;;;4.82;;
24216;SDS011;12356;49.386;8.688;2022-11-20T11:50:20;8.55;;;5.80;;
24216;SDS011;12356;49.386;8.688;2022-11-20T11:53:04;8.77;;;6.07;;
24216;SDS011;12356;49.386;8.688;2022-11-20T11:55:44;11.40;;;7.85;;
24216;SDS011;12356;49.386;8.688;2022-11-20T12:01:08;9.18;;;6.20;;
24216;SDS011;12356;49.386;8.688;2022-11-20T12:04:14;9.02;;;6.18;;
24216;SDS011;12356;49.386;8.688;2022-11-20T12:06:53;12.07;;;6.78;;
24216;SDS011;12356;49.386;8.688;2022-11-20T12:09:38;11.18;;;6.53;;
24216;SDS011;12356;49.386;8.688;2022-11-20T12:12:20;12.25;;;7.63;;
24216;SDS011;12356;49.386;8.688;2022-11-20T12:15:07;13.82;;;7.38;;
24216;SDS011;12356;49.386;8.688;2022-11-20T12:17:41;20.02;;;13.00;;
24216;SDS011;12356;49.386;8.688;2022-11-20T12:20:16;11.75;;;8.20;;
24216;SDS011;12356;49.386;8.688;2022-11-20T12:25:48;13.05;;;8.75;;
24216;SDS011;12356;49.386;8.688;2022-11-20T12:28:30;15.70;;;8.38;;
24216;SDS011;12356;49.386;8.688;2022-11-20T12:31:47;12.73;;;8.52;;
24216;SDS011;12356;49.386;8.688;2022-11-20T12:38:03;14.82;;;8.25;;
24216;SDS011;12356;49.386;8.688;2022-11-20T12:43:37;11.38;;;8.00;;
24216;SDS011;12356;49.386;8.688;2022-11-20T12:52:15;10.10;;;5.65;;
24216;SDS011;12356;49.386;8.688;2022-11-20T13:00:22;6.65;;;2.42;;
24216;SDS011;12356;49.386;8.688;2022-11-20T13:03:06;5.07;;;2.40;;
24216;SDS011;12356;49.386;8.688;2022-11-20T13:05:47;5.43;;;2.45;;
24216;SDS011;12356;49.386;8.688;2022-11-20T13:08:26;5.80;;;2.50;;
24216;SDS011;12356;49.386;8.688;2022-11-20T13:11:14;4.20;;;2.45;;
24216;SDS011;12356;49.386;8.688;2022-11-20T13:16:47;5.35;;;2.20;;
24216;SDS011;12356;49.386;8.688;2022-11-20T13:19:25;4.57;;;2.15;;
24216;SDS011;12356;49.386;8.688;2022-11-20T13:21:58;4.68;;;1.98;;
24216;SDS011;12356;49.386;8.688;2022-11-20T13:24:32;4.72;;;1.85;;
24216;SDS011;12356;49.386;8.688;2022-11-20T13:29:44;8.20;;;1.77;;
24216;SDS011;12356;49.386;8.688;2022-11-20T13:32:20;3.97;;;1.98;;
24216;SDS011;12356;49.386;8.688;2022-11-20T13:34:55;4.22;;;1.67;;
24216;SDS011;12356;49.386;8.688;2022-11-20T13:37:34;4.63;;;2.25;;
24216;SDS011;12356;49.386;8.688;2022-11-20T13:42:44;6.03;;;2.17;;
24216;SDS011;12356;49.386;8.688;2022-11-20T13:45:25;4.35;;;2.03;;
24216;SDS011;12356;49.386;8.688;2022-11-20T13:47:59;3.75;;;2.10;;
24216;SDS011;12356;49.386;8.688;2022-11-20T13:53:13;10.07;;;4.10;;
24216;SDS011;12356;49.386;8.688;2022-11-20T13:56:02;8.45;;;2.97;;
24216;SDS011;12356;49.386;8.688;2022-11-20T14:01:37;4.13;;;2.20;;
24216;SDS011;12356;49.386;8.688;2022-11-20T14:04:09;5.72;;;1.90;;
24216;SDS011;12356;49.386;8.688;2022-11-20T14:06:49;7.93;;;3.10;;
24216;SDS011;12356;49.386;8.688;2022-11-20T14:09:30;4.43;;;1.55;;
24216;SDS011;12356;49.386;8.688;2022-11-20T14:12:04;3.05;;;1.40;;
24216;SDS011;12356;49.386;8.688;2022-11-20T14:14:52;5.22;;;1.80;;
24216;SDS011;12356;49.386;8.688;2022-11-20T14:17:34;3.97;;;1.58;;
24216;SDS011;12356;49.386;8.688;2022-11-20T14:20:11;5.65;;;1.60;;
24216;SDS011;12356;49.386;8.688;2022-11-20T14:22:48;4.82;;;1.42;;
24216;SDS011;12356;49.386;8.688;2022-11-20T14:25:23;4.65;;;1.60;;
24216;SDS011;12356;49.386;8.688;2022-11-20T14:27:57;4.55;;;1.50;;
24216;SDS011;12356;49.386;8.688;2022-11-20T14:33:15;2.80;;;1.27;;
24216;SDS011;12356;49.386;8.688;2022-11-20T14:35:47;5.00;;;1.77;;
24216;SDS011;12356;49.386;8.688;2022-11-20T14:38:28;2.90;;;1.38;;
24216;SDS011;12356;49.386;8.688;2022-11-20T14:41:05;2.90;;;1.30;;
24216;SDS011;12356;49.386;8.688;2022-11-20T14:43:39;4.47;;;1.23;;
24216;SDS011;12356;49.386;8.688;2022-11-20T14:46:15;2.60;;;1.23;;
24216;SDS011;12356;49.386;8.688;2022-11-20T14:48:48;4.53;;;1.40;;
24216;SDS011;12356;49.386;8.688;2022-11-20T14:51:31;3.22;;;1.20;;
24216;SDS011;12356;49.386;8.688;2022-11-20T14:57:02;4.60;;;1.90;;
24216;SDS011;12356;49.386;8.688;2022-11-20T14:59:41;2.40;;;1.60;;
24216;SDS011;12356;49.386;8.688;2022-11-20T15:02:12;5.20;;;2.60;;
24216;SDS011;12356;49.386;8.688;2022-11-20T15:04:49;5.03;;;2.80;;
24216;SDS011;12356;49.386;8.688;2022-11-20T15:07:33;4.45;;;1.85;;
24216;SDS011;12356;49.386;8.688;2022-11-20T15:10:11;5.05;;;1.90;;
24216;SDS011;12356;49.386;8.688;2022-11-20T15:12:53;3.08;;;1.63;;
24216;SDS011;12356;49.386;8.688;2022-11-20T15:15:29;5.43;;;2.80;;
24216;SDS011;12356;49.386;8.688;2022-11-20T15:18:01;4.60;;;3.20;;
24216;SDS011;12356;49.386;8.688;2022-11-20T15:20:33;8.53;;;3.77;;
24216;SDS011;12356;49.386;8.688;2022-11-20T15:25:43;5.95;;;3.80;;
24216;SDS011;12356;49.386;8.688;2022-11-20T15:31:03;7.97;;;4.30;;
24216;SDS011;12356;49.386;8.688;2022-11-20T15:33:35;8.55;;;4.35;;
24216;SDS011;12356;49.386;8.688;2022-11-20T15:36:06;8.02;;;3.70;;
24216;SDS011;12356;49.386;8.688;2022-11-20T15:38:38;6.75;;;4.13;;
24216;SDS011;12356;49.386;8.688;2022-11-20T15:41:09;5.93;;;3.50;;
24216;SDS011;12356;49.386;8.688;2022-11-20T15:43:40;7.50;;;3.30;;
24216;SDS011;12356;49.386;8.688;2022-11-20T15:46:11;7.53;;;3.50;;
24216;SDS011;12356;49.386;8.688;2022-11-20T15:48:46;6.97;;;3.20;;
24216;SDS011;12356;49.386;8.688;2022-11-20T15:51:28;6.85;;;3.50;;
24216;SDS011;12356;49.386;8.688;2022-11-20T15:54:24;7.65;;;3.50;;
24216;SDS011;12356;49.386;8.688;2022-11-20T15:56:54;9.10;;;3.35;;
24216;SDS011;12356;49.386;8.688;2022-11-20T15:59:25;7.57;;;3.65;;
24216;SDS011;12356;49.386;8.688;2022-11-20T16:01:56;7.47;;;3.25;;
24216;SDS011;12356;49.386;8.688;2022-11-20T16:04:26;7.18;;;3.40;;
24216;SDS011;12356;49.386;8.688;2022-11-20T16:06:57;8.20;;;3.40;;
24216;SDS011;12356;49.386;8.688;2022-11-20T16:09:27;9.30;;;3.50;;
24216;SDS011;12356;49.386;8.688;2022-11-20T16:11:59;10.10;;;3.95;;
24216;SDS011;12356;49.386;8.688;2022-11-20T16:14:29;7.13;;;3.90;;
24216;SDS011;12356;49.386;8.688;2022-11-20T16:17:19;8.40;;;4.57;;
24216;SDS011;12356;49.386;8.688;2022-11-20T16:20:10;11.93;;;5.28;;
24216;SDS011;12356;49.386;8.688;2022-11-20T16:22:41;11.03;;;5.67;;
24216;SDS011;12356;49.386;8.688;2022-11-20T16:25:12;12.35;;;6.30;;
24216;SDS011;12356;49.386;8.688;2022-11-20T16:27:42;14.80;;;6.55;;
24216;SDS011;12356;49.386;8.688;2022-11-20T16:30:14;15.18;;;6.78;;
24216;SDS011;12356;49.386;8.688;2022-11-20T16:32:45;13.73;;;6.15;;
24216;SDS011;12356;49.386;8.688;2022-11-20T16:35:16;10.75;;;4.65;;
24216;SDS011;12356;49.386;8.688;2022-11-20T16:37:46;9.57;;;4.65;;
24216;SDS011;12356;49.386;8.688;2022-11-20T16:40:17;10.98;;;4.43;;
24216;SDS011;12356;49.386;8.688;2022-11-20T16:42:48;15.10;;;4.60;;
24216;SDS011;12356;49.386;8.688;2022-11-20T16:45:18;14.43;;;4.82;;
24216;SDS011;12356;49.386;8.688;2022-11-20T16:47:49;12.65;;;4.30;;
24216;SDS011;12356;49.386;8.688;2022-11-20T16:50:21;10.55;;;4.15;;